sensor_id;sensor_type;location;lat;lon;timestamp;temperature;humidity
4366;DHT22;2196;47.422;9.656;2023-06-24T00:00:11;17.10;99.90
4366;DHT22;2196;47.422;9.656;2023-06-24T00:02:38;17.10;99.90
4366;DHT22;2196;47.422;9.656;2023-06-24T00:05:09;17.20;99.90
4366;DHT22;2196;47.422;9.656;2023-06-24T00:07:36;17.20;99.90
4366;DHT22;2196;47.422;9.656;2023-06-24T00:10:10;17.20;99.90
4366;DHT22;2196;47.422;9.656;2023-06-24T00:12:37;17.10;99.90
4366;DHT22;2196;47.422;9.656;2023-06-24T00:15:07;17.00;99.90
4366;DHT22;2196;47.422;9.656;2023-06-24T00:17:35;16.90;99.90
4366;DHT22;2196;47.422;9.656;2023-06-24T00:20:02;16.80;99.90
4366;DHT22;2196;47.422;9.656;2023-06-24T00:22:33;16.80;99.90
4366;DHT22;2196;47.422;9.656;2023-06-24T00:25:00;16.80;99.90
4366;DHT22;2196;47.422;9.656;2023-06-24T00:27:28;16.70;99.90
4366;DHT22;2196;47.422;9.656;2023-06-24T00:29:54;16.60;99.90
4366;DHT22;2196;47.422;9.656;2023-06-24T00:32:25;16.60;99.90
4366;DHT22;2196;47.422;9.656;2023-06-24T00:34:51;16.60;99.90
4366;DHT22;2196;47.422;9.656;2023-06-24T00:37:18;16.50;99.90
4366;DHT22;2196;47.422;9.656;2023-06-24T00:39:45;16.50;99.90
4366;DHT22;2196;47.422;9.656;2023-06-24T00:42:12;16.40;99.90
4366;DHT22;2196;47.422;9.656;2023-06-24T00:44:39;16.30;99.90
4366;DHT22;2196;47.422;9.656;2023-06-24T00:47:06;16.30;99.90
4366;DHT22;2196;47.422;9.656;2023-06-24T00:49:37;16.20;99.90
4366;DHT22;2196;47.422;9.656;2023-06-24T00:52:04;16.20;99.90
4366;DHT22;2196;47.422;9.656;2023-06-24T00:54:31;16.10;99.90
4366;DHT22;2196;47.422;9.656;2023-06-24T00:56:58;16.10;99.90
4366;DHT22;2196;47.422;9.656;2023-06-24T00:59:27;16.10;99.90
4366;DHT22;2196;47.422;9.656;2023-06-24T01:01:57;16.10;99.90
4366;DHT22;2196;47.422;9.656;2023-06-24T01:04:27;16.10;99.90
4366;DHT22;2196;47.422;9.656;2023-06-24T01:06:56;16.10;99.90
4366;DHT22;2196;47.422;9.656;2023-06-24T01:09:24;16.10;99.90
4366;DHT22;2196;47.422;9.656;2023-06-24T01:11:51;16.10;99.90
4366;DHT22;2196;47.422;9.656;2023-06-24T01:14:18;16.10;99.90
4366;DHT22;2196;47.422;9.656;2023-06-24T01:16:53;16.00;99.90
4366;DHT22;2196;47.422;9.656;2023-06-24T01:19:51;16.00;99.90
4366;DHT22;2196;47.422;9.656;2023-06-24T01:22:57;16.00;99.90
4366;DHT22;2196;47.422;9.656;2023-06-24T01:25:38;16.00;99.90
4366;DHT22;2196;47.422;9.656;2023-06-24T01:28:30;16.00;99.90
4366;DHT22;2196;47.422;9.656;2023-06-24T01:31:24;16.00;99.90
4366;DHT22;2196;47.422;9.656;2023-06-24T01:34:02;16.00;99.90
4366;DHT22;2196;47.422;9.656;2023-06-24T01:36:34;16.10;99.90
4366;DHT22;2196;47.422;9.656;2023-06-24T01:39:04;16.10;99.90
4366;DHT22;2196;47.422;9.656;2023-06-24T01:41:34;16.00;99.90
4366;DHT22;2196;47.422;9.656;2023-06-24T01:44:04;16.00;99.90
4366;DHT22;2196;47.422;9.656;2023-06-24T01:46:32;16.00;99.90
4366;DHT22;2196;47.422;9.656;2023-06-24T01:49:01;16.00;99.90
4366;DHT22;2196;47.422;9.656;2023-06-24T01:51:31;16.00;99.90
4366;DHT22;2196;47.422;9.656;2023-06-24T01:54:02;15.90;99.90
4366;DHT22;2196;47.422;9.656;2023-06-24T01:56:30;15.90;99.90
4366;DHT22;2196;47.422;9.656;2023-06-24T01:59:01;15.90;99.90
4366;DHT22;2196;47.422;9.656;2023-06-24T02:01:32;15.80;99.90
4366;DHT22;2196;47.422;9.656;2023-06-24T02:04:01;15.70;99.90
4366;DHT22;2196;47.422;9.656;2023-06-24T02:06:29;15.70;99.90
4366;DHT22;2196;47.422;9.656;2023-06-24T02:08:57;15.70;99.90
4366;DHT22;2196;47.422;9.656;2023-06-24T02:11:26;15.60;99.90
4366;DHT22;2196;47.422;9.656;2023-06-24T02:13:55;15.60;99.90
4366;DHT22;2196;47.422;9.656;2023-06-24T02:16:23;15.60;99.90
4366;DHT22;2196;47.422;9.656;2023-06-24T02:18:52;15.60;99.90
4366;DHT22;2196;47.422;9.656;2023-06-24T02:21:21;15.70;99.90
4366;DHT22;2196;47.422;9.656;2023-06-24T02:23:50;15.80;99.90
4366;DHT22;2196;47.422;9.656;2023-06-24T02:26:18;15.70;99.90
4366;DHT22;2196;47.422;9.656;2023-06-24T02:28:45;15.70;99.90
4366;DHT22;2196;47.422;9.656;2023-06-24T02:31:12;15.70;99.90
4366;DHT22;2196;47.422;9.656;2023-06-24T02:33:41;15.60;99.90
4366;DHT22;2196;47.422;9.656;2023-06-24T02:36:09;15.60;99.90
4366;DHT22;2196;47.422;9.656;2023-06-24T02:38:36;15.60;99.90
4366;DHT22;2196;47.422;9.656;2023-06-24T02:41:03;15.60;99.90
4366;DHT22;2196;47.422;9.656;2023-06-24T02:43:30;15.60;99.90
4366;DHT22;2196;47.422;9.656;2023-06-24T02:45:58;15.60;99.90
4366;DHT22;2196;47.422;9.656;2023-06-24T02:48:26;15.70;99.90
4366;DHT22;2196;47.422;9.656;2023-06-24T02:50:55;15.70;99.90
4366;DHT22;2196;47.422;9.656;2023-06-24T02:53:25;15.60;99.90
4366;DHT22;2196;47.422;9.656;2023-06-24T02:55:54;15.50;99.90
4366;DHT22;2196;47.422;9.656;2023-06-24T02:58:23;15.50;99.90
4366;DHT22;2196;47.422;9.656;2023-06-24T03:00:57;15.60;99.90
4366;DHT22;2196;47.422;9.656;2023-06-24T03:03:26;15.50;99.90
4366;DHT22;2196;47.422;9.656;2023-06-24T03:05:54;15.60;99.90
4366;DHT22;2196;47.422;9.656;2023-06-24T03:08:24;15.60;99.90
4366;DHT22;2196;47.422;9.656;2023-06-24T03:10:55;15.60;99.90
4366;DHT22;2196;47.422;9.656;2023-06-24T03:13:22;15.70;99.90
4366;DHT22;2196;47.422;9.656;2023-06-24T03:15:49;15.80;99.90
4366;DHT22;2196;47.422;9.656;2023-06-24T03:18:17;15.80;99.90
4366;DHT22;2196;47.422;9.656;2023-06-24T03:20:44;15.90;99.90
4366;DHT22;2196;47.422;9.656;2023-06-24T03:23:11;15.90;99.90
4366;DHT22;2196;47.422;9.656;2023-06-24T03:25:39;15.90;99.90
4366;DHT22;2196;47.422;9.656;2023-06-24T03:28:07;16.00;99.90
4366;DHT22;2196;47.422;9.656;2023-06-24T03:30:34;15.90;99.90
4366;DHT22;2196;47.422;9.656;2023-06-24T03:33:01;16.00;99.90
4366;DHT22;2196;47.422;9.656;2023-06-24T03:35:27;15.90;99.90
4366;DHT22;2196;47.422;9.656;2023-06-24T03:37:55;15.90;99.90
4366;DHT22;2196;47.422;9.656;2023-06-24T03:40:22;15.90;99.90
4366;DHT22;2196;47.422;9.656;2023-06-24T03:42:50;15.90;99.90
4366;DHT22;2196;47.422;9.656;2023-06-24T03:45:17;16.00;99.90
4366;DHT22;2196;47.422;9.656;2023-06-24T03:47:44;16.00;99.90
4366;DHT22;2196;47.422;9.656;2023-06-24T03:50:11;16.00;99.90
4366;DHT22;2196;47.422;9.656;2023-06-24T03:52:38;16.00;99.90
4366;DHT22;2196;47.422;9.656;2023-06-24T03:55:05;16.00;99.90
4366;DHT22;2196;47.422;9.656;2023-06-24T03:57:32;16.10;99.90
4366;DHT22;2196;47.422;9.656;2023-06-24T04:00:01;16.00;99.90
4366;DHT22;2196;47.422;9.656;2023-06-24T04:02:31;16.00;99.90
4366;DHT22;2196;47.422;9.656;2023-06-24T04:04:58;16.00;99.90
4366;DHT22;2196;47.422;9.656;2023-06-24T04:07:25;16.10;99.90
4366;DHT22;2196;47.422;9.656;2023-06-24T04:09:55;16.10;99.90
4366;DHT22;2196;47.422;9.656;2023-06-24T04:12:24;16.10;99.90
4366;DHT22;2196;47.422;9.656;2023-06-24T04:14:50;16.20;99.90
4366;DHT22;2196;47.422;9.656;2023-06-24T04:17:19;16.20;99.90
4366;DHT22;2196;47.422;9.656;2023-06-24T04:19:46;16.20;99.90
4366;DHT22;2196;47.422;9.656;2023-06-24T04:22:13;16.30;99.90
4366;DHT22;2196;47.422;9.656;2023-06-24T04:24:40;16.30;99.90
4366;DHT22;2196;47.422;9.656;2023-06-24T04:27:08;16.30;99.90
4366;DHT22;2196;47.422;9.656;2023-06-24T04:29:35;16.30;99.90
4366;DHT22;2196;47.422;9.656;2023-06-24T04:32:03;16.40;99.90
4366;DHT22;2196;47.422;9.656;2023-06-24T04:34:31;16.40;99.90
4366;DHT22;2196;47.422;9.656;2023-06-24T04:36:58;16.50;99.90
4366;DHT22;2196;47.422;9.656;2023-06-24T04:39:25;16.60;99.90
4366;DHT22;2196;47.422;9.656;2023-06-24T04:41:52;16.70;99.90
4366;DHT22;2196;47.422;9.656;2023-06-24T04:44:19;16.70;99.90
4366;DHT22;2196;47.422;9.656;2023-06-24T04:46:47;16.70;99.90
4366;DHT22;2196;47.422;9.656;2023-06-24T04:49:14;16.70;99.90
4366;DHT22;2196;47.422;9.656;2023-06-24T04:51:42;16.80;99.90
4366;DHT22;2196;47.422;9.656;2023-06-24T04:54:09;16.80;99.90
4366;DHT22;2196;47.422;9.656;2023-06-24T04:56:37;16.80;99.90
4366;DHT22;2196;47.422;9.656;2023-06-24T04:59:04;16.90;99.90
4366;DHT22;2196;47.422;9.656;2023-06-24T05:01:31;16.90;99.90
4366;DHT22;2196;47.422;9.656;2023-06-24T05:03:58;17.00;99.90
4366;DHT22;2196;47.422;9.656;2023-06-24T05:06:25;17.00;99.90
4366;DHT22;2196;47.422;9.656;2023-06-24T05:08:54;17.10;99.90
4366;DHT22;2196;47.422;9.656;2023-06-24T05:11:21;17.20;99.90
4366;DHT22;2196;47.422;9.656;2023-06-24T05:13:48;17.10;99.90
4366;DHT22;2196;47.422;9.656;2023-06-24T05:16:15;17.20;99.90
4366;DHT22;2196;47.422;9.656;2023-06-24T05:18:44;17.20;99.90
4366;DHT22;2196;47.422;9.656;2023-06-24T05:21:11;17.20;99.90
4366;DHT22;2196;47.422;9.656;2023-06-24T05:23:38;17.30;99.90
4366;DHT22;2196;47.422;9.656;2023-06-24T05:26:06;17.40;99.90
4366;DHT22;2196;47.422;9.656;2023-06-24T05:28:34;17.40;99.90
4366;DHT22;2196;47.422;9.656;2023-06-24T05:31:01;17.40;99.90
4366;DHT22;2196;47.422;9.656;2023-06-24T05:33:27;17.50;99.90
4366;DHT22;2196;47.422;9.656;2023-06-24T05:35:54;17.70;99.90
4366;DHT22;2196;47.422;9.656;2023-06-24T05:38:21;17.80;99.90
4366;DHT22;2196;47.422;9.656;2023-06-24T05:40:48;17.90;99.90
4366;DHT22;2196;47.422;9.656;2023-06-24T05:43:16;17.90;99.90
4366;DHT22;2196;47.422;9.656;2023-06-24T05:45:43;17.90;99.90
4366;DHT22;2196;47.422;9.656;2023-06-24T05:48:10;18.00;99.90
4366;DHT22;2196;47.422;9.656;2023-06-24T05:50:37;18.10;99.90
4366;DHT22;2196;47.422;9.656;2023-06-24T05:53:04;18.20;99.90
4366;DHT22;2196;47.422;9.656;2023-06-24T05:55:31;18.20;99.90
4366;DHT22;2196;47.422;9.656;2023-06-24T05:57:58;18.20;99.90
4366;DHT22;2196;47.422;9.656;2023-06-24T06:00:26;18.20;99.90
4366;DHT22;2196;47.422;9.656;2023-06-24T06:02:53;18.20;99.90
4366;DHT22;2196;47.422;9.656;2023-06-24T06:05:20;18.20;99.90
4366;DHT22;2196;47.422;9.656;2023-06-24T06:07:47;18.20;99.90
4366;DHT22;2196;47.422;9.656;2023-06-24T06:10:14;18.20;99.90
4366;DHT22;2196;47.422;9.656;2023-06-24T06:12:43;18.30;99.90
4366;DHT22;2196;47.422;9.656;2023-06-24T06:15:10;18.20;99.90
4366;DHT22;2196;47.422;9.656;2023-06-24T06:17:39;18.30;99.90
4366;DHT22;2196;47.422;9.656;2023-06-24T06:20:07;18.40;99.90
4366;DHT22;2196;47.422;9.656;2023-06-24T06:22:34;18.50;99.90
4366;DHT22;2196;47.422;9.656;2023-06-24T06:25:04;18.70;99.90
4366;DHT22;2196;47.422;9.656;2023-06-24T06:27:31;18.90;99.90
4366;DHT22;2196;47.422;9.656;2023-06-24T06:29:58;19.10;99.90
4366;DHT22;2196;47.422;9.656;2023-06-24T06:32:26;19.00;99.90
4366;DHT22;2196;47.422;9.656;2023-06-24T06:34:55;19.10;99.90
4366;DHT22;2196;47.422;9.656;2023-06-24T06:37:22;19.30;99.90
4366;DHT22;2196;47.422;9.656;2023-06-24T06:39:49;19.30;99.90
4366;DHT22;2196;47.422;9.656;2023-06-24T06:42:16;19.50;99.90
4366;DHT22;2196;47.422;9.656;2023-06-24T06:44:43;19.70;99.90
4366;DHT22;2196;47.422;9.656;2023-06-24T06:47:10;19.90;99.90
4366;DHT22;2196;47.422;9.656;2023-06-24T06:49:37;20.10;99.90
4366;DHT22;2196;47.422;9.656;2023-06-24T06:52:07;20.30;99.90
4366;DHT22;2196;47.422;9.656;2023-06-24T06:54:34;20.50;99.90
4366;DHT22;2196;47.422;9.656;2023-06-24T06:57:01;20.60;99.90
4366;DHT22;2196;47.422;9.656;2023-06-24T06:59:29;20.70;99.90
4366;DHT22;2196;47.422;9.656;2023-06-24T07:01:56;20.70;99.90
4366;DHT22;2196;47.422;9.656;2023-06-24T07:04:23;20.90;99.90
4366;DHT22;2196;47.422;9.656;2023-06-24T07:06:51;21.10;99.90
4366;DHT22;2196;47.422;9.656;2023-06-24T07:09:20;21.30;99.90
4366;DHT22;2196;47.422;9.656;2023-06-24T07:11:47;21.20;99.90
4366;DHT22;2196;47.422;9.656;2023-06-24T07:14:13;21.20;99.90
4366;DHT22;2196;47.422;9.656;2023-06-24T07:16:40;21.00;99.90
4366;DHT22;2196;47.422;9.656;2023-06-24T07:19:07;20.90;99.90
4366;DHT22;2196;47.422;9.656;2023-06-24T07:21:34;20.90;99.90
4366;DHT22;2196;47.422;9.656;2023-06-24T07:24:01;21.00;99.90
4366;DHT22;2196;47.422;9.656;2023-06-24T07:26:30;20.90;99.90
4366;DHT22;2196;47.422;9.656;2023-06-24T07:28:57;20.80;99.90
4366;DHT22;2196;47.422;9.656;2023-06-24T07:31:24;20.70;99.90
4366;DHT22;2196;47.422;9.656;2023-06-24T07:33:51;20.60;99.90
4366;DHT22;2196;47.422;9.656;2023-06-24T07:36:18;20.40;99.90
4366;DHT22;2196;47.422;9.656;2023-06-24T07:38:45;20.40;99.90
4366;DHT22;2196;47.422;9.656;2023-06-24T07:41:12;20.20;99.90
4366;DHT22;2196;47.422;9.656;2023-06-24T07:43:40;20.10;99.90
4366;DHT22;2196;47.422;9.656;2023-06-24T07:46:07;20.20;99.90
4366;DHT22;2196;47.422;9.656;2023-06-24T07:48:34;20.50;99.90
4366;DHT22;2196;47.422;9.656;2023-06-24T07:51:01;20.80;99.90
4366;DHT22;2196;47.422;9.656;2023-06-24T07:53:28;21.20;99.90
4366;DHT22;2196;47.422;9.656;2023-06-24T07:55:55;21.90;99.90
4366;DHT22;2196;47.422;9.656;2023-06-24T07:58:22;22.00;99.90
4366;DHT22;2196;47.422;9.656;2023-06-24T08:00:50;22.30;99.90
4366;DHT22;2196;47.422;9.656;2023-06-24T08:03:17;23.20;99.90
4366;DHT22;2196;47.422;9.656;2023-06-24T08:05:44;23.70;99.90
4366;DHT22;2196;47.422;9.656;2023-06-24T08:08:11;23.70;99.90
4366;DHT22;2196;47.422;9.656;2023-06-24T08:10:38;23.50;99.90
4366;DHT22;2196;47.422;9.656;2023-06-24T08:13:05;23.50;99.90
4366;DHT22;2196;47.422;9.656;2023-06-24T08:15:32;23.60;99.90
4366;DHT22;2196;47.422;9.656;2023-06-24T08:18:00;23.90;99.90
4366;DHT22;2196;47.422;9.656;2023-06-24T08:20:27;24.90;99.90
4366;DHT22;2196;47.422;9.656;2023-06-24T08:22:54;26.00;99.90
4366;DHT22;2196;47.422;9.656;2023-06-24T08:25:21;26.50;99.90
4366;DHT22;2196;47.422;9.656;2023-06-24T08:27:48;26.30;99.90
4366;DHT22;2196;47.422;9.656;2023-06-24T08:30:15;26.70;99.90
4366;DHT22;2196;47.422;9.656;2023-06-24T08:32:42;26.80;99.90
4366;DHT22;2196;47.422;9.656;2023-06-24T08:35:10;27.60;99.90
4366;DHT22;2196;47.422;9.656;2023-06-24T08:37:37;28.30;99.90
4366;DHT22;2196;47.422;9.656;2023-06-24T08:40:05;28.60;99.90
4366;DHT22;2196;47.422;9.656;2023-06-24T08:42:32;29.20;99.90
4366;DHT22;2196;47.422;9.656;2023-06-24T08:44:59;28.90;99.90
4366;DHT22;2196;47.422;9.656;2023-06-24T08:47:30;29.30;99.90
4366;DHT22;2196;47.422;9.656;2023-06-24T08:50:02;29.00;99.90
4366;DHT22;2196;47.422;9.656;2023-06-24T08:52:34;29.60;99.90
4366;DHT22;2196;47.422;9.656;2023-06-24T08:55:02;29.80;99.90
4366;DHT22;2196;47.422;9.656;2023-06-24T08:57:31;29.60;99.90
4366;DHT22;2196;47.422;9.656;2023-06-24T08:59:58;29.80;99.90
4366;DHT22;2196;47.422;9.656;2023-06-24T09:02:26;30.00;99.90
4366;DHT22;2196;47.422;9.656;2023-06-24T09:04:53;29.70;99.90
4366;DHT22;2196;47.422;9.656;2023-06-24T09:07:28;29.50;99.90
4366;DHT22;2196;47.422;9.656;2023-06-24T09:09:56;29.20;99.90
4366;DHT22;2196;47.422;9.656;2023-06-24T09:12:25;29.90;99.90
4366;DHT22;2196;47.422;9.656;2023-06-24T09:14:56;29.30;99.90
4366;DHT22;2196;47.422;9.656;2023-06-24T09:17:22;29.90;99.90
4366;DHT22;2196;47.422;9.656;2023-06-24T09:19:50;29.50;99.90
4366;DHT22;2196;47.422;9.656;2023-06-24T09:22:17;29.80;99.90
4366;DHT22;2196;47.422;9.656;2023-06-24T09:24:45;29.50;99.90
4366;DHT22;2196;47.422;9.656;2023-06-24T09:27:14;29.90;99.90
4366;DHT22;2196;47.422;9.656;2023-06-24T09:29:42;29.90;99.90
4366;DHT22;2196;47.422;9.656;2023-06-24T09:32:10;30.50;99.90
4366;DHT22;2196;47.422;9.656;2023-06-24T09:34:37;31.10;99.30
4366;DHT22;2196;47.422;9.656;2023-06-24T09:37:05;31.60;99.60
4366;DHT22;2196;47.422;9.656;2023-06-24T09:39:36;31.30;99.90
4366;DHT22;2196;47.422;9.656;2023-06-24T09:42:04;30.90;99.90
4366;DHT22;2196;47.422;9.656;2023-06-24T09:44:34;31.00;99.80
4366;DHT22;2196;47.422;9.656;2023-06-24T09:47:01;31.20;98.90
4366;DHT22;2196;47.422;9.656;2023-06-24T09:49:29;31.10;99.90
4366;DHT22;2196;47.422;9.656;2023-06-24T09:51:58;31.20;96.90
4366;DHT22;2196;47.422;9.656;2023-06-24T09:54:27;31.40;95.90
4366;DHT22;2196;47.422;9.656;2023-06-24T09:56:57;31.10;97.50
4366;DHT22;2196;47.422;9.656;2023-06-24T09:59:26;31.10;97.30
4366;DHT22;2196;47.422;9.656;2023-06-24T10:01:57;31.00;98.20
4366;DHT22;2196;47.422;9.656;2023-06-24T10:04:25;30.80;96.60
4366;DHT22;2196;47.422;9.656;2023-06-24T10:06:54;30.80;94.20
4366;DHT22;2196;47.422;9.656;2023-06-24T10:09:21;31.30;98.00
4366;DHT22;2196;47.422;9.656;2023-06-24T10:11:49;30.60;96.00
4366;DHT22;2196;47.422;9.656;2023-06-24T10:14:16;30.90;97.50
4366;DHT22;2196;47.422;9.656;2023-06-24T10:16:44;31.30;95.90
4366;DHT22;2196;47.422;9.656;2023-06-24T10:19:19;31.00;95.30
4366;DHT22;2196;47.422;9.656;2023-06-24T10:21:50;31.00;98.10
4366;DHT22;2196;47.422;9.656;2023-06-24T10:24:31;30.90;97.10
4366;DHT22;2196;47.422;9.656;2023-06-24T10:27:03;31.00;96.00
4366;DHT22;2196;47.422;9.656;2023-06-24T10:29:34;30.70;94.40
4366;DHT22;2196;47.422;9.656;2023-06-24T10:32:03;30.40;96.00
4366;DHT22;2196;47.422;9.656;2023-06-24T10:34:42;30.90;94.10
4366;DHT22;2196;47.422;9.656;2023-06-24T10:37:12;30.90;92.00
4366;DHT22;2196;47.422;9.656;2023-06-24T10:42:38;31.20;91.50
4366;DHT22;2196;47.422;9.656;2023-06-24T10:45:15;30.50;94.90
4366;DHT22;2196;47.422;9.656;2023-06-24T10:47:44;30.60;94.20
4366;DHT22;2196;47.422;9.656;2023-06-24T10:50:14;30.40;91.40
4366;DHT22;2196;47.422;9.656;2023-06-24T10:52:42;30.20;91.80
4366;DHT22;2196;47.422;9.656;2023-06-24T10:55:10;29.80;90.60
4366;DHT22;2196;47.422;9.656;2023-06-24T10:57:37;29.30;92.40
4366;DHT22;2196;47.422;9.656;2023-06-24T11:00:05;29.50;94.20
4366;DHT22;2196;47.422;9.656;2023-06-24T11:02:32;29.30;92.50
4366;DHT22;2196;47.422;9.656;2023-06-24T11:05:01;28.90;93.30
4366;DHT22;2196;47.422;9.656;2023-06-24T11:07:31;28.90;93.90
4366;DHT22;2196;47.422;9.656;2023-06-24T11:10:03;28.70;92.80
4366;DHT22;2196;47.422;9.656;2023-06-24T11:12:32;28.60;95.80
4366;DHT22;2196;47.422;9.656;2023-06-24T11:15:02;28.50;94.00
4366;DHT22;2196;47.422;9.656;2023-06-24T11:17:30;28.60;92.90
4366;DHT22;2196;47.422;9.656;2023-06-24T11:19:58;28.30;96.10
4366;DHT22;2196;47.422;9.656;2023-06-24T11:22:26;28.40;96.00
4366;DHT22;2196;47.422;9.656;2023-06-24T11:24:57;28.20;94.60
4366;DHT22;2196;47.422;9.656;2023-06-24T11:27:25;28.00;96.50
4366;DHT22;2196;47.422;9.656;2023-06-24T11:29:53;27.90;96.70
4366;DHT22;2196;47.422;9.656;2023-06-24T11:32:20;28.00;95.50
4366;DHT22;2196;47.422;9.656;2023-06-24T11:34:48;28.00;96.90
4366;DHT22;2196;47.422;9.656;2023-06-24T11:37:16;27.70;96.40
4366;DHT22;2196;47.422;9.656;2023-06-24T11:39:44;27.20;96.20
4366;DHT22;2196;47.422;9.656;2023-06-24T11:42:13;27.10;96.30
4366;DHT22;2196;47.422;9.656;2023-06-24T11:44:43;27.10;96.20
4366;DHT22;2196;47.422;9.656;2023-06-24T11:47:11;26.90;98.10
4366;DHT22;2196;47.422;9.656;2023-06-24T11:49:51;26.80;97.70
4366;DHT22;2196;47.422;9.656;2023-06-24T11:52:18;26.90;99.00
4366;DHT22;2196;47.422;9.656;2023-06-24T11:54:45;26.90;98.90
4366;DHT22;2196;47.422;9.656;2023-06-24T11:57:18;27.00;97.50
4366;DHT22;2196;47.422;9.656;2023-06-24T11:59:45;27.10;92.30
4366;DHT22;2196;47.422;9.656;2023-06-24T12:02:14;27.00;92.00
4366;DHT22;2196;47.422;9.656;2023-06-24T12:04:43;27.30;95.50
4366;DHT22;2196;47.422;9.656;2023-06-24T12:07:11;27.20;98.30
4366;DHT22;2196;47.422;9.656;2023-06-24T12:09:38;27.00;94.00
4366;DHT22;2196;47.422;9.656;2023-06-24T12:12:06;27.00;92.20
4366;DHT22;2196;47.422;9.656;2023-06-24T12:14:34;27.00;91.70
4366;DHT22;2196;47.422;9.656;2023-06-24T12:17:01;26.90;91.30
4366;DHT22;2196;47.422;9.656;2023-06-24T12:19:28;26.80;93.10
4366;DHT22;2196;47.422;9.656;2023-06-24T12:21:55;26.80;92.90
4366;DHT22;2196;47.422;9.656;2023-06-24T12:24:22;26.80;93.30
4366;DHT22;2196;47.422;9.656;2023-06-24T12:26:50;26.70;92.50
4366;DHT22;2196;47.422;9.656;2023-06-24T12:29:17;26.70;93.60
4366;DHT22;2196;47.422;9.656;2023-06-24T12:31:45;26.60;93.10
4366;DHT22;2196;47.422;9.656;2023-06-24T12:34:12;26.50;93.40
4366;DHT22;2196;47.422;9.656;2023-06-24T12:36:39;26.60;93.70
4366;DHT22;2196;47.422;9.656;2023-06-24T12:39:06;26.60;91.70
4366;DHT22;2196;47.422;9.656;2023-06-24T12:41:33;26.80;94.30
4366;DHT22;2196;47.422;9.656;2023-06-24T12:44:00;26.80;94.10
4366;DHT22;2196;47.422;9.656;2023-06-24T12:46:27;26.70;92.80
4366;DHT22;2196;47.422;9.656;2023-06-24T12:48:56;26.50;93.30
4366;DHT22;2196;47.422;9.656;2023-06-24T12:51:23;26.40;93.50
4366;DHT22;2196;47.422;9.656;2023-06-24T12:53:50;26.40;93.30
4366;DHT22;2196;47.422;9.656;2023-06-24T12:56:17;26.40;95.00
4366;DHT22;2196;47.422;9.656;2023-06-24T12:58:44;26.40;92.80
4366;DHT22;2196;47.422;9.656;2023-06-24T13:01:11;26.40;94.10
4366;DHT22;2196;47.422;9.656;2023-06-24T13:03:38;26.20;94.30
4366;DHT22;2196;47.422;9.656;2023-06-24T13:06:06;26.20;92.90
4366;DHT22;2196;47.422;9.656;2023-06-24T13:08:33;26.30;94.70
4366;DHT22;2196;47.422;9.656;2023-06-24T13:11:00;26.40;92.90
4366;DHT22;2196;47.422;9.656;2023-06-24T13:13:27;26.50;92.20
4366;DHT22;2196;47.422;9.656;2023-06-24T13:15:54;26.60;91.90
4366;DHT22;2196;47.422;9.656;2023-06-24T13:18:21;26.50;94.20
4366;DHT22;2196;47.422;9.656;2023-06-24T13:20:48;26.40;92.80
4366;DHT22;2196;47.422;9.656;2023-06-24T13:23:16;26.30;92.80
4366;DHT22;2196;47.422;9.656;2023-06-24T13:25:43;26.30;95.40
4366;DHT22;2196;47.422;9.656;2023-06-24T13:28:10;26.30;93.20
4366;DHT22;2196;47.422;9.656;2023-06-24T13:30:37;26.30;93.40
4366;DHT22;2196;47.422;9.656;2023-06-24T13:33:04;26.40;92.80
4366;DHT22;2196;47.422;9.656;2023-06-24T13:35:31;26.40;92.20
4366;DHT22;2196;47.422;9.656;2023-06-24T13:37:58;26.30;91.80
4366;DHT22;2196;47.422;9.656;2023-06-24T13:40:26;26.20;91.80
4366;DHT22;2196;47.422;9.656;2023-06-24T13:42:53;26.10;92.40
4366;DHT22;2196;47.422;9.656;2023-06-24T13:45:20;26.20;92.00
4366;DHT22;2196;47.422;9.656;2023-06-24T13:47:47;26.20;92.60
4366;DHT22;2196;47.422;9.656;2023-06-24T13:50:14;26.20;93.00
4366;DHT22;2196;47.422;9.656;2023-06-24T13:52:41;26.30;92.40
4366;DHT22;2196;47.422;9.656;2023-06-24T13:55:08;26.20;92.60
4366;DHT22;2196;47.422;9.656;2023-06-24T13:57:37;26.20;91.90
4366;DHT22;2196;47.422;9.656;2023-06-24T14:00:04;26.20;92.40
4366;DHT22;2196;47.422;9.656;2023-06-24T14:02:32;26.10;91.00
4366;DHT22;2196;47.422;9.656;2023-06-24T14:04:59;26.10;92.90
4366;DHT22;2196;47.422;9.656;2023-06-24T14:07:26;26.00;93.00
4366;DHT22;2196;47.422;9.656;2023-06-24T14:09:53;26.00;93.40
4366;DHT22;2196;47.422;9.656;2023-06-24T14:12:20;26.00;94.00
4366;DHT22;2196;47.422;9.656;2023-06-24T14:14:48;26.10;92.20
4366;DHT22;2196;47.422;9.656;2023-06-24T14:17:15;26.00;92.60
4366;DHT22;2196;47.422;9.656;2023-06-24T14:19:42;26.10;93.00
4366;DHT22;2196;47.422;9.656;2023-06-24T14:22:09;26.00;93.20
4366;DHT22;2196;47.422;9.656;2023-06-24T14:24:36;26.00;92.40
4366;DHT22;2196;47.422;9.656;2023-06-24T14:27:05;26.20;91.60
4366;DHT22;2196;47.422;9.656;2023-06-24T14:29:32;26.20;91.80
4366;DHT22;2196;47.422;9.656;2023-06-24T14:32:01;26.20;91.70
4366;DHT22;2196;47.422;9.656;2023-06-24T14:34:28;26.20;90.30
4366;DHT22;2196;47.422;9.656;2023-06-24T14:36:55;26.30;93.00
4366;DHT22;2196;47.422;9.656;2023-06-24T14:39:22;26.30;92.80
4366;DHT22;2196;47.422;9.656;2023-06-24T14:41:49;26.40;92.90
4366;DHT22;2196;47.422;9.656;2023-06-24T14:44:16;26.40;92.10
4366;DHT22;2196;47.422;9.656;2023-06-24T14:46:42;26.40;92.10
4366;DHT22;2196;47.422;9.656;2023-06-24T14:49:11;26.50;92.00
4366;DHT22;2196;47.422;9.656;2023-06-24T14:51:38;26.40;92.60
4366;DHT22;2196;47.422;9.656;2023-06-24T14:54:05;26.40;91.60
4366;DHT22;2196;47.422;9.656;2023-06-24T14:56:32;26.50;90.80
4366;DHT22;2196;47.422;9.656;2023-06-24T14:58:59;26.50;92.90
4366;DHT22;2196;47.422;9.656;2023-06-24T15:01:26;26.40;92.90
4366;DHT22;2196;47.422;9.656;2023-06-24T15:03:53;26.40;92.20
4366;DHT22;2196;47.422;9.656;2023-06-24T15:06:22;26.20;92.60
4366;DHT22;2196;47.422;9.656;2023-06-24T15:08:49;26.10;93.00
4366;DHT22;2196;47.422;9.656;2023-06-24T15:11:16;26.10;91.60
4366;DHT22;2196;47.422;9.656;2023-06-24T15:13:42;26.20;91.80
4366;DHT22;2196;47.422;9.656;2023-06-24T15:16:09;26.20;92.50
4366;DHT22;2196;47.422;9.656;2023-06-24T15:18:44;26.20;91.70
4366;DHT22;2196;47.422;9.656;2023-06-24T15:21:11;26.20;91.80
4366;DHT22;2196;47.422;9.656;2023-06-24T15:23:40;26.20;92.70
4366;DHT22;2196;47.422;9.656;2023-06-24T15:26:07;26.20;92.40
4366;DHT22;2196;47.422;9.656;2023-06-24T15:28:34;26.20;92.80
4366;DHT22;2196;47.422;9.656;2023-06-24T15:31:01;26.20;93.50
4366;DHT22;2196;47.422;9.656;2023-06-24T15:33:27;26.30;92.80
4366;DHT22;2196;47.422;9.656;2023-06-24T15:35:54;26.20;92.70
4366;DHT22;2196;47.422;9.656;2023-06-24T15:38:23;26.00;91.60
4366;DHT22;2196;47.422;9.656;2023-06-24T15:40:51;26.10;93.30
4366;DHT22;2196;47.422;9.656;2023-06-24T15:43:18;26.10;92.30
4366;DHT22;2196;47.422;9.656;2023-06-24T15:45:45;26.20;93.20
4366;DHT22;2196;47.422;9.656;2023-06-24T15:48:12;26.20;92.40
4366;DHT22;2196;47.422;9.656;2023-06-24T15:50:39;26.10;92.50
4366;DHT22;2196;47.422;9.656;2023-06-24T15:53:06;26.20;93.20
4366;DHT22;2196;47.422;9.656;2023-06-24T15:55:33;26.20;92.40
4366;DHT22;2196;47.422;9.656;2023-06-24T15:58:01;26.10;93.10
4366;DHT22;2196;47.422;9.656;2023-06-24T16:00:29;26.00;93.00
4366;DHT22;2196;47.422;9.656;2023-06-24T16:02:56;25.90;93.10
4366;DHT22;2196;47.422;9.656;2023-06-24T16:05:23;26.00;93.10
4366;DHT22;2196;47.422;9.656;2023-06-24T16:07:50;26.00;92.30
4366;DHT22;2196;47.422;9.656;2023-06-24T16:10:17;26.10;91.90